Accueil
METAR-TAF:

METAR-TAF

Aéroports :

Usak, Turquie

latitude: 38-40N, longitude: 029-25E, altitude: 919 m

Observation

Le bulletin a été fait il y a 26 minutes, à 08:50 UTC
Vent 3 kt de est/sud-est, variant entre nord/nord-est et sud
Température 10°C
Humidité 46%
Pression 1023 hPa
Visibilité 10 km ou plus
Quelques nuages à une hauteur de 4000 ft
Nuages fragmentés à une hauteur de 10000 ft

METAR: LTBO 270850Z 12003KT 030V170 9999 FEW040 BKN100 10/M01 Q1023

Heure: 12:16 (09:16 UTC)

Prévision

Le bulletin a été fait il y a 1 heure et 36 minutes, à 07:40 UTC
Prévision valable du 27 à 09 UTC au 27 à 18 UTC
Vent 2 kt de direction variable
Visibilité 10 km ou plus
Nuages épars à une hauteur de 3500 ft
Nuages fragmentés à une hauteur de 10000 ft
Evoluant progressivement
du 27 à 10 UTC au 27 à 13 UTC
pluie faible

TAF: LTBO 270740Z 2709/2718 VRB02KT 9999 SCT035 BKN100 BECMG 2710/2713 -RA

Observations et prévisions météorologiques de plus de 4000 aéroports (messages METAR et TAF).

Les stations disponibles sont représentées par des disques jaunes et rouges sur la carte.

Passer la souris dessus pour voir le nom de la station.

Cliquer dessus pour voir les observations et prévisions météorologiques.

Pour changer de carte: cliquez sur les boutons verts avec une croix noire pour zoomer, sur le bouton vert avec un tiret pour effectuer un zoom arrière, ou sur les flèches vertes pour les cartes adjacentes.


METAR-TAF: